sensor_id;sensor_type;location;lat;lon;timestamp;P1;durP1;ratioP1;P2;durP2;ratioP2
22193;SDS011;11262;50.308;9.270;2022-09-09T00:02:22;5.73;;;2.80;;
22193;SDS011;11262;50.308;9.270;2022-09-09T00:04:57;4.90;;;2.60;;
22193;SDS011;11262;50.308;9.270;2022-09-09T00:07:47;4.60;;;2.43;;
22193;SDS011;11262;50.308;9.270;2022-09-09T00:23:29;8.87;;;3.30;;
22193;SDS011;11262;50.308;9.270;2022-09-09T00:28:33;6.00;;;2.77;;
22193;SDS011;11262;50.308;9.270;2022-09-09T00:31:15;6.03;;;2.97;;
22193;SDS011;11262;50.308;9.270;2022-09-09T00:33:45;5.13;;;2.40;;
22193;SDS011;11262;50.308;9.270;2022-09-09T00:36:14;6.33;;;3.13;;
22193;SDS011;11262;50.308;9.270;2022-09-09T00:38:47;3.00;;;2.70;;
22193;SDS011;11262;50.308;9.270;2022-09-09T00:41:22;8.67;;;3.03;;
22193;SDS011;11262;50.308;9.270;2022-09-09T00:46:47;4.20;;;2.30;;
22193;SDS011;11262;50.308;9.270;2022-09-09T00:49:35;5.10;;;2.63;;
22193;SDS011;11262;50.308;9.270;2022-09-09T00:55:07;4.97;;;3.30;;
22193;SDS011;11262;50.308;9.270;2022-09-09T00:57:35;5.77;;;3.23;;
22193;SDS011;11262;50.308;9.270;2022-09-09T01:06:00;7.03;;;3.20;;
22193;SDS011;11262;50.308;9.270;2022-09-09T01:17:21;6.63;;;2.90;;
22193;SDS011;11262;50.308;9.270;2022-09-09T01:23:10;5.57;;;2.70;;
22193;SDS011;11262;50.308;9.270;2022-09-09T01:28:51;5.47;;;2.67;;
22193;SDS011;11262;50.308;9.270;2022-09-09T01:31:35;6.50;;;2.60;;
22193;SDS011;11262;50.308;9.270;2022-09-09T01:34:08;5.20;;;2.50;;
22193;SDS011;11262;50.308;9.270;2022-09-09T01:36:41;6.90;;;2.43;;
22193;SDS011;11262;50.308;9.270;2022-09-09T01:39:09;4.23;;;2.73;;
22193;SDS011;11262;50.308;9.270;2022-09-09T01:41:35;4.47;;;2.40;;
22193;SDS011;11262;50.308;9.270;2022-09-09T01:44:01;8.83;;;2.63;;
22193;SDS011;11262;50.308;9.270;2022-09-09T01:46:27;5.00;;;2.60;;
22193;SDS011;11262;50.308;9.270;2022-09-09T01:48:54;6.10;;;2.60;;
22193;SDS011;11262;50.308;9.270;2022-09-09T01:51:21;3.83;;;2.53;;
22193;SDS011;11262;50.308;9.270;2022-09-09T01:53:47;6.87;;;2.57;;
22193;SDS011;11262;50.308;9.270;2022-09-09T01:56:32;5.97;;;2.63;;
22193;SDS011;11262;50.308;9.270;2022-09-09T02:04:48;6.50;;;2.67;;
22193;SDS011;11262;50.308;9.270;2022-09-09T02:10:05;4.77;;;3.03;;
22193;SDS011;11262;50.308;9.270;2022-09-09T02:12:51;2.67;;;2.43;;
22193;SDS011;11262;50.308;9.270;2022-09-09T02:15:23;6.93;;;2.70;;
22193;SDS011;11262;50.308;9.270;2022-09-09T02:17:55;5.13;;;2.80;;
22193;SDS011;11262;50.308;9.270;2022-09-09T02:20:23;8.40;;;2.87;;
22193;SDS011;11262;50.308;9.270;2022-09-09T02:22:52;5.40;;;2.67;;
22193;SDS011;11262;50.308;9.270;2022-09-09T02:25:20;6.27;;;2.80;;
22193;SDS011;11262;50.308;9.270;2022-09-09T02:27:49;4.17;;;2.70;;
22193;SDS011;11262;50.308;9.270;2022-09-09T02:30:18;9.27;;;2.40;;
22193;SDS011;11262;50.308;9.270;2022-09-09T02:32:45;4.17;;;2.90;;
22193;SDS011;11262;50.308;9.270;2022-09-09T02:35:15;6.07;;;2.50;;
22193;SDS011;11262;50.308;9.270;2022-09-09T02:37:44;6.00;;;2.80;;
22193;SDS011;11262;50.308;9.270;2022-09-09T02:40:13;5.20;;;3.20;;
22193;SDS011;11262;50.308;9.270;2022-09-09T02:42:43;7.70;;;2.83;;
22193;SDS011;11262;50.308;9.270;2022-09-09T02:45:11;5.13;;;3.00;;
22193;SDS011;11262;50.308;9.270;2022-09-09T02:50:17;5.90;;;2.90;;
22193;SDS011;11262;50.308;9.270;2022-09-09T02:57:57;4.97;;;2.63;;
22193;SDS011;11262;50.308;9.270;2022-09-09T03:00:25;8.90;;;2.60;;
22193;SDS011;11262;50.308;9.270;2022-09-09T03:02:52;9.07;;;2.90;;
22193;SDS011;11262;50.308;9.270;2022-09-09T03:05:19;5.70;;;2.80;;
22193;SDS011;11262;50.308;9.270;2022-09-09T03:07:45;7.13;;;2.70;;
22193;SDS011;11262;50.308;9.270;2022-09-09T03:10:11;6.70;;;2.77;;
22193;SDS011;11262;50.308;9.270;2022-09-09T03:12:38;7.03;;;2.80;;
22193;SDS011;11262;50.308;9.270;2022-09-09T03:15:04;7.97;;;2.70;;
22193;SDS011;11262;50.308;9.270;2022-09-09T03:17:30;6.07;;;2.70;;
22193;SDS011;11262;50.308;9.270;2022-09-09T03:19:56;7.43;;;2.60;;
22193;SDS011;11262;50.308;9.270;2022-09-09T03:22:23;8.70;;;2.40;;
22193;SDS011;11262;50.308;9.270;2022-09-09T03:24:50;8.30;;;2.70;;
22193;SDS011;11262;50.308;9.270;2022-09-09T03:27:17;8.70;;;2.80;;
22193;SDS011;11262;50.308;9.270;2022-09-09T03:29:44;6.57;;;2.63;;
22193;SDS011;11262;50.308;9.270;2022-09-09T03:32:10;5.13;;;2.87;;
22193;SDS011;11262;50.308;9.270;2022-09-09T03:34:37;6.80;;;2.60;;
22193;SDS011;11262;50.308;9.270;2022-09-09T03:37:06;11.53;;;2.93;;
22193;SDS011;11262;50.308;9.270;2022-09-09T03:39:32;5.83;;;2.93;;
22193;SDS011;11262;50.308;9.270;2022-09-09T03:41:57;6.47;;;2.70;;
22193;SDS011;11262;50.308;9.270;2022-09-09T03:44:23;4.93;;;2.90;;
22193;SDS011;11262;50.308;9.270;2022-09-09T03:46:48;7.90;;;2.83;;
22193;SDS011;11262;50.308;9.270;2022-09-09T03:49:14;6.63;;;3.10;;
22193;SDS011;11262;50.308;9.270;2022-09-09T03:51:40;6.30;;;2.53;;
22193;SDS011;11262;50.308;9.270;2022-09-09T03:54:06;8.73;;;3.00;;
22193;SDS011;11262;50.308;9.270;2022-09-09T03:56:33;7.37;;;2.80;;
22193;SDS011;11262;50.308;9.270;2022-09-09T03:59:00;7.53;;;2.80;;
22193;SDS011;11262;50.308;9.270;2022-09-09T04:01:25;4.47;;;3.00;;
22193;SDS011;11262;50.308;9.270;2022-09-09T04:03:51;5.87;;;2.80;;
22193;SDS011;11262;50.308;9.270;2022-09-09T04:06:17;8.03;;;2.80;;
22193;SDS011;11262;50.308;9.270;2022-09-09T04:08:45;5.87;;;2.83;;
22193;SDS011;11262;50.308;9.270;2022-09-09T04:11:13;6.20;;;2.70;;
22193;SDS011;11262;50.308;9.270;2022-09-09T04:13:40;5.27;;;2.80;;
22193;SDS011;11262;50.308;9.270;2022-09-09T04:16:07;4.60;;;2.70;;
22193;SDS011;11262;50.308;9.270;2022-09-09T04:18:34;5.43;;;2.83;;
22193;SDS011;11262;50.308;9.270;2022-09-09T04:21:00;6.17;;;2.97;;
22193;SDS011;11262;50.308;9.270;2022-09-09T04:23:26;7.87;;;2.80;;
22193;SDS011;11262;50.308;9.270;2022-09-09T04:25:57;6.50;;;2.67;;
22193;SDS011;11262;50.308;9.270;2022-09-09T04:28:24;10.87;;;3.00;;
22193;SDS011;11262;50.308;9.270;2022-09-09T04:30:51;4.53;;;2.67;;
22193;SDS011;11262;50.308;9.270;2022-09-09T04:33:17;3.23;;;2.70;;
22193;SDS011;11262;50.308;9.270;2022-09-09T04:35:43;4.13;;;2.57;;
22193;SDS011;11262;50.308;9.270;2022-09-09T04:38:10;7.17;;;3.20;;
22193;SDS011;11262;50.308;9.270;2022-09-09T04:40:36;5.00;;;2.50;;
22193;SDS011;11262;50.308;9.270;2022-09-09T04:43:02;10.50;;;2.90;;
22193;SDS011;11262;50.308;9.270;2022-09-09T04:45:31;4.93;;;2.90;;
22193;SDS011;11262;50.308;9.270;2022-09-09T04:47:57;5.27;;;2.70;;
22193;SDS011;11262;50.308;9.270;2022-09-09T04:50:23;7.37;;;3.00;;
22193;SDS011;11262;50.308;9.270;2022-09-09T04:52:49;9.27;;;2.80;;
22193;SDS011;11262;50.308;9.270;2022-09-09T04:55:15;11.43;;;2.80;;
22193;SDS011;11262;50.308;9.270;2022-09-09T04:57:41;6.97;;;3.10;;
22193;SDS011;11262;50.308;9.270;2022-09-09T05:00:07;8.80;;;3.00;;
22193;SDS011;11262;50.308;9.270;2022-09-09T05:02:36;10.50;;;2.90;;
22193;SDS011;11262;50.308;9.270;2022-09-09T05:05:03;10.47;;;2.87;;
22193;SDS011;11262;50.308;9.270;2022-09-09T05:07:28;5.67;;;2.90;;
22193;SDS011;11262;50.308;9.270;2022-09-09T05:09:56;5.10;;;2.60;;
22193;SDS011;11262;50.308;9.270;2022-09-09T05:12:22;10.27;;;2.83;;
22193;SDS011;11262;50.308;9.270;2022-09-09T05:14:49;9.40;;;2.60;;
22193;SDS011;11262;50.308;9.270;2022-09-09T05:17:15;7.90;;;3.03;;
22193;SDS011;11262;50.308;9.270;2022-09-09T05:19:41;5.07;;;2.43;;
22193;SDS011;11262;50.308;9.270;2022-09-09T05:22:07;6.13;;;2.83;;
22193;SDS011;11262;50.308;9.270;2022-09-09T05:24:33;5.87;;;2.90;;
22193;SDS011;11262;50.308;9.270;2022-09-09T05:26:58;6.57;;;2.60;;
22193;SDS011;11262;50.308;9.270;2022-09-09T05:29:27;6.73;;;2.87;;
22193;SDS011;11262;50.308;9.270;2022-09-09T05:31:52;3.57;;;2.80;;
22193;SDS011;11262;50.308;9.270;2022-09-09T05:34:18;5.97;;;2.97;;
22193;SDS011;11262;50.308;9.270;2022-09-09T05:36:44;7.63;;;2.93;;
22193;SDS011;11262;50.308;9.270;2022-09-09T05:39:10;6.10;;;2.80;;
22193;SDS011;11262;50.308;9.270;2022-09-09T05:41:36;5.63;;;2.60;;
22193;SDS011;11262;50.308;9.270;2022-09-09T05:44:02;6.00;;;3.20;;
22193;SDS011;11262;50.308;9.270;2022-09-09T05:46:28;5.73;;;3.13;;
22193;SDS011;11262;50.308;9.270;2022-09-09T05:48:54;11.20;;;3.97;;
22193;SDS011;11262;50.308;9.270;2022-09-09T05:51:21;3.80;;;3.10;;
22193;SDS011;11262;50.308;9.270;2022-09-09T05:53:49;8.93;;;2.77;;
22193;SDS011;11262;50.308;9.270;2022-09-09T05:56:26;4.83;;;2.77;;
22193;SDS011;11262;50.308;9.270;2022-09-09T05:58:53;8.37;;;2.70;;
22193;SDS011;11262;50.308;9.270;2022-09-09T06:01:23;8.37;;;2.80;;
22193;SDS011;11262;50.308;9.270;2022-09-09T06:04:00;4.80;;;2.63;;
22193;SDS011;11262;50.308;9.270;2022-09-09T06:06:27;5.77;;;3.00;;
22193;SDS011;11262;50.308;9.270;2022-09-09T06:08:56;6.03;;;2.90;;
22193;SDS011;11262;50.308;9.270;2022-09-09T06:11:23;6.60;;;3.20;;
22193;SDS011;11262;50.308;9.270;2022-09-09T06:13:51;4.50;;;2.80;;
22193;SDS011;11262;50.308;9.270;2022-09-09T06:16:20;5.37;;;2.80;;
22193;SDS011;11262;50.308;9.270;2022-09-09T06:18:48;6.53;;;2.87;;
22193;SDS011;11262;50.308;9.270;2022-09-09T06:21:16;10.17;;;2.90;;
22193;SDS011;11262;50.308;9.270;2022-09-09T06:23:43;5.53;;;3.17;;
22193;SDS011;11262;50.308;9.270;2022-09-09T06:26:10;7.97;;;2.70;;
22193;SDS011;11262;50.308;9.270;2022-09-09T06:28:45;6.73;;;2.60;;
22193;SDS011;11262;50.308;9.270;2022-09-09T06:31:12;8.17;;;3.07;;
22193;SDS011;11262;50.308;9.270;2022-09-09T06:33:41;7.57;;;2.87;;
22193;SDS011;11262;50.308;9.270;2022-09-09T06:36:12;11.97;;;3.13;;
22193;SDS011;11262;50.308;9.270;2022-09-09T06:38:37;5.40;;;3.27;;
22193;SDS011;11262;50.308;9.270;2022-09-09T06:41:03;8.70;;;3.50;;
22193;SDS011;11262;50.308;9.270;2022-09-09T06:43:30;4.60;;;2.67;;
22193;SDS011;11262;50.308;9.270;2022-09-09T06:45:58;5.23;;;2.80;;
22193;SDS011;11262;50.308;9.270;2022-09-09T06:48:24;12.83;;;3.17;;
22193;SDS011;11262;50.308;9.270;2022-09-09T06:51:03;10.20;;;3.10;;
22193;SDS011;11262;50.308;9.270;2022-09-09T06:53:40;9.00;;;2.87;;
22193;SDS011;11262;50.308;9.270;2022-09-09T06:58:44;7.60;;;2.70;;
22193;SDS011;11262;50.308;9.270;2022-09-09T07:01:11;7.90;;;2.90;;
22193;SDS011;11262;50.308;9.270;2022-09-09T07:03:39;6.40;;;2.80;;
22193;SDS011;11262;50.308;9.270;2022-09-09T07:06:05;5.23;;;2.70;;
22193;SDS011;11262;50.308;9.270;2022-09-09T07:08:32;9.93;;;3.10;;
22193;SDS011;11262;50.308;9.270;2022-09-09T07:11:02;6.23;;;2.90;;
22193;SDS011;11262;50.308;9.270;2022-09-09T07:13:32;7.27;;;2.73;;
22193;SDS011;11262;50.308;9.270;2022-09-09T07:16:07;7.90;;;3.00;;
22193;SDS011;11262;50.308;9.270;2022-09-09T07:18:34;8.90;;;2.73;;
22193;SDS011;11262;50.308;9.270;2022-09-09T07:21:01;4.57;;;2.70;;
22193;SDS011;11262;50.308;9.270;2022-09-09T07:23:28;6.87;;;2.97;;
22193;SDS011;11262;50.308;9.270;2022-09-09T07:25:55;8.80;;;2.93;;
22193;SDS011;11262;50.308;9.270;2022-09-09T07:28:21;5.33;;;3.00;;
22193;SDS011;11262;50.308;9.270;2022-09-09T07:30:57;8.82;;;3.22;;
22193;SDS011;11262;50.308;9.270;2022-09-09T07:33:26;5.93;;;2.70;;
22193;SDS011;11262;50.308;9.270;2022-09-09T07:35:52;7.57;;;3.07;;
22193;SDS011;11262;50.308;9.270;2022-09-09T07:38:18;3.47;;;2.77;;
22193;SDS011;11262;50.308;9.270;2022-09-09T07:40:45;9.77;;;3.37;;
22193;SDS011;11262;50.308;9.270;2022-09-09T07:43:11;9.53;;;3.43;;
22193;SDS011;11262;50.308;9.270;2022-09-09T07:45:37;7.30;;;3.17;;
22193;SDS011;11262;50.308;9.270;2022-09-09T07:48:02;10.10;;;3.60;;
22193;SDS011;11262;50.308;9.270;2022-09-09T07:50:28;10.27;;;3.30;;
22193;SDS011;11262;50.308;9.270;2022-09-09T07:52:55;7.97;;;3.50;;
22193;SDS011;11262;50.308;9.270;2022-09-09T07:55:21;6.67;;;3.47;;
22193;SDS011;11262;50.308;9.270;2022-09-09T07:57:50;6.27;;;3.10;;
22193;SDS011;11262;50.308;9.270;2022-09-09T08:00:16;6.13;;;3.20;;
22193;SDS011;11262;50.308;9.270;2022-09-09T08:02:43;10.10;;;3.50;;
22193;SDS011;11262;50.308;9.270;2022-09-09T08:05:10;8.63;;;3.50;;
22193;SDS011;11262;50.308;9.270;2022-09-09T08:07:36;13.37;;;3.60;;
22193;SDS011;11262;50.308;9.270;2022-09-09T08:10:02;9.57;;;3.70;;
22193;SDS011;11262;50.308;9.270;2022-09-09T08:12:28;10.80;;;3.40;;
22193;SDS011;11262;50.308;9.270;2022-09-09T08:14:54;13.13;;;3.70;;
22193;SDS011;11262;50.308;9.270;2022-09-09T08:17:20;14.03;;;3.30;;
22193;SDS011;11262;50.308;9.270;2022-09-09T08:19:45;10.23;;;3.47;;
22193;SDS011;11262;50.308;9.270;2022-09-09T08:22:11;9.83;;;3.30;;
22193;SDS011;11262;50.308;9.270;2022-09-09T08:24:37;13.20;;;3.10;;
22193;SDS011;11262;50.308;9.270;2022-09-09T08:27:02;13.33;;;3.27;;
22193;SDS011;11262;50.308;9.270;2022-09-09T08:29:28;11.87;;;3.73;;
22193;SDS011;11262;50.308;9.270;2022-09-09T08:31:55;12.23;;;3.60;;
22193;SDS011;11262;50.308;9.270;2022-09-09T08:34:22;6.87;;;3.10;;
22193;SDS011;11262;50.308;9.270;2022-09-09T08:36:50;7.93;;;3.40;;
22193;SDS011;11262;50.308;9.270;2022-09-09T08:39:17;12.07;;;3.67;;
22193;SDS011;11262;50.308;9.270;2022-09-09T08:52:39;7.53;;;3.43;;
22193;SDS011;11262;50.308;9.270;2022-09-09T08:55:56;11.93;;;3.27;;
22193;SDS011;11262;50.308;9.270;2022-09-09T08:58:33;8.80;;;2.90;;
22193;SDS011;11262;50.308;9.270;2022-09-09T09:06:44;7.13;;;3.20;;
22193;SDS011;11262;50.308;9.270;2022-09-09T09:11:56;10.93;;;3.50;;
22193;SDS011;11262;50.308;9.270;2022-09-09T09:14:26;12.27;;;3.70;;
22193;SDS011;11262;50.308;9.270;2022-09-09T09:16:59;8.00;;;4.10;;
22193;SDS011;11262;50.308;9.270;2022-09-09T09:19:27;8.60;;;3.57;;
22193;SDS011;11262;50.308;9.270;2022-09-09T09:22:00;15.03;;;3.63;;
22193;SDS011;11262;50.308;9.270;2022-09-09T09:24:51;6.03;;;3.47;;
22193;SDS011;11262;50.308;9.270;2022-09-09T09:29:59;6.83;;;3.37;;
22193;SDS011;11262;50.308;9.270;2022-09-09T09:32:28;6.90;;;3.50;;
22193;SDS011;11262;50.308;9.270;2022-09-09T09:34:58;14.17;;;3.60;;
22193;SDS011;11262;50.308;9.270;2022-09-09T09:37:30;12.77;;;3.87;;
22193;SDS011;11262;50.308;9.270;2022-09-09T09:40:19;10.13;;;3.60;;
22193;SDS011;11262;50.308;9.270;2022-09-09T09:42:58;7.57;;;3.60;;
22193;SDS011;11262;50.308;9.270;2022-09-09T09:48:05;6.13;;;3.10;;
22193;SDS011;11262;50.308;9.270;2022-09-09T09:50:33;3.53;;;2.80;;
22193;SDS011;11262;50.308;9.270;2022-09-09T09:53:00;11.07;;;2.87;;
22193;SDS011;11262;50.308;9.270;2022-09-09T09:55:30;10.40;;;3.53;;
22193;SDS011;11262;50.308;9.270;2022-09-09T09:58:02;10.77;;;3.10;;
22193;SDS011;11262;50.308;9.270;2022-09-09T10:00:29;6.90;;;2.90;;
22193;SDS011;11262;50.308;9.270;2022-09-09T10:02:55;5.43;;;2.93;;
22193;SDS011;11262;50.308;9.270;2022-09-09T10:05:25;7.87;;;3.00;;
22193;SDS011;11262;50.308;9.270;2022-09-09T10:08:00;8.73;;;3.00;;
22193;SDS011;11262;50.308;9.270;2022-09-09T10:10:27;14.27;;;3.10;;
22193;SDS011;11262;50.308;9.270;2022-09-09T10:13:19;9.87;;;2.83;;
22193;SDS011;11262;50.308;9.270;2022-09-09T10:18:24;7.20;;;2.77;;
22193;SDS011;11262;50.308;9.270;2022-09-09T10:26:48;10.27;;;2.60;;
22193;SDS011;11262;50.308;9.270;2022-09-09T10:35:27;11.30;;;2.83;;
22193;SDS011;11262;50.308;9.270;2022-09-09T10:46:33;8.93;;;2.60;;
22193;SDS011;11262;50.308;9.270;2022-09-09T10:49:23;9.20;;;3.00;;
22193;SDS011;11262;50.308;9.270;2022-09-09T10:54:48;9.20;;;2.63;;
22193;SDS011;11262;50.308;9.270;2022-09-09T10:57:37;6.87;;;2.33;;
22193;SDS011;11262;50.308;9.270;2022-09-09T11:00:14;6.83;;;2.67;;
22193;SDS011;11262;50.308;9.270;2022-09-09T11:02:43;10.20;;;2.40;;
22193;SDS011;11262;50.308;9.270;2022-09-09T11:05:16;10.70;;;2.57;;
22193;SDS011;11262;50.308;9.270;2022-09-09T11:10:34;6.50;;;2.23;;
22193;SDS011;11262;50.308;9.270;2022-09-09T11:13:24;7.33;;;1.83;;
22193;SDS011;11262;50.308;9.270;2022-09-09T11:16:02;9.20;;;2.20;;
22193;SDS011;11262;50.308;9.270;2022-09-09T11:18:38;7.40;;;2.00;;
22193;SDS011;11262;50.308;9.270;2022-09-09T11:21:09;6.53;;;2.03;;
22193;SDS011;11262;50.308;9.270;2022-09-09T11:23:44;7.53;;;2.20;;
22193;SDS011;11262;50.308;9.270;2022-09-09T11:26:17;6.77;;;2.47;;
22193;SDS011;11262;50.308;9.270;2022-09-09T11:28:55;5.67;;;2.10;;
22193;SDS011;11262;50.308;9.270;2022-09-09T11:37:31;12.73;;;2.60;;
22193;SDS011;11262;50.308;9.270;2022-09-09T11:43:00;9.50;;;2.47;;
22193;SDS011;11262;50.308;9.270;2022-09-09T11:45:33;5.73;;;2.57;;
22193;SDS011;11262;50.308;9.270;2022-09-09T11:48:01;7.73;;;2.67;;
22193;SDS011;11262;50.308;9.270;2022-09-09T11:55:39;2.73;;;1.90;;
22193;SDS011;11262;50.308;9.270;2022-09-09T12:00:37;11.13;;;2.30;;
22193;SDS011;11262;50.308;9.270;2022-09-09T12:06:33;9.67;;;2.50;;
22193;SDS011;11262;50.308;9.270;2022-09-09T12:09:04;5.67;;;2.30;;
22193;SDS011;11262;50.308;9.270;2022-09-09T12:11:48;5.03;;;2.40;;
22193;SDS011;11262;50.308;9.270;2022-09-09T12:14:21;8.73;;;2.73;;
22193;SDS011;11262;50.308;9.270;2022-09-09T12:17:07;8.50;;;2.60;;
22193;SDS011;11262;50.308;9.270;2022-09-09T12:19:35;4.27;;;2.23;;
22193;SDS011;11262;50.308;9.270;2022-09-09T12:22:04;8.17;;;2.77;;
22193;SDS011;11262;50.308;9.270;2022-09-09T12:24:49;6.53;;;2.57;;
22193;SDS011;11262;50.308;9.270;2022-09-09T12:27:34;11.23;;;2.43;;
22193;SDS011;11262;50.308;9.270;2022-09-09T12:30:10;7.67;;;2.67;;
22193;SDS011;11262;50.308;9.270;2022-09-09T12:32:40;5.23;;;2.73;;
22193;SDS011;11262;50.308;9.270;2022-09-09T12:35:13;6.83;;;2.40;;
22193;SDS011;11262;50.308;9.270;2022-09-09T12:37:51;10.07;;;2.80;;
22193;SDS011;11262;50.308;9.270;2022-09-09T12:40:31;8.70;;;2.43;;
22193;SDS011;11262;50.308;9.270;2022-09-09T12:43:00;6.80;;;2.20;;
22193;SDS011;11262;50.308;9.270;2022-09-09T12:45:28;5.40;;;2.13;;
22193;SDS011;11262;50.308;9.270;2022-09-09T12:48:00;7.20;;;2.27;;
22193;SDS011;11262;50.308;9.270;2022-09-09T12:50:33;6.33;;;2.13;;
22193;SDS011;11262;50.308;9.270;2022-09-09T12:53:03;13.13;;;2.50;;
22193;SDS011;11262;50.308;9.270;2022-09-09T12:55:35;9.40;;;2.13;;
22193;SDS011;11262;50.308;9.270;2022-09-09T12:58:03;4.90;;;2.23;;
22193;SDS011;11262;50.308;9.270;2022-09-09T13:00:31;9.37;;;2.40;;
22193;SDS011;11262;50.308;9.270;2022-09-09T13:02:59;5.30;;;1.90;;
22193;SDS011;11262;50.308;9.270;2022-09-09T13:05:28;7.60;;;2.00;;
22193;SDS011;11262;50.308;9.270;2022-09-09T13:08:10;5.30;;;1.80;;
22193;SDS011;11262;50.308;9.270;2022-09-09T13:10:41;6.80;;;2.00;;
22193;SDS011;11262;50.308;9.270;2022-09-09T13:13:21;5.43;;;2.10;;
22193;SDS011;11262;50.308;9.270;2022-09-09T13:15:51;5.57;;;2.10;;
22193;SDS011;11262;50.308;9.270;2022-09-09T13:18:21;10.07;;;2.30;;
22193;SDS011;11262;50.308;9.270;2022-09-09T13:20:49;7.50;;;2.10;;
22193;SDS011;11262;50.308;9.270;2022-09-09T13:23:16;5.20;;;2.10;;
22193;SDS011;11262;50.308;9.270;2022-09-09T13:25:57;4.37;;;2.20;;
22193;SDS011;11262;50.308;9.270;2022-09-09T13:28:25;7.87;;;2.33;;
22193;SDS011;11262;50.308;9.270;2022-09-09T13:31:19;8.53;;;2.20;;
22193;SDS011;11262;50.308;9.270;2022-09-09T13:34:11;8.73;;;2.07;;
22193;SDS011;11262;50.308;9.270;2022-09-09T13:37:04;3.23;;;2.00;;
22193;SDS011;11262;50.308;9.270;2022-09-09T13:39:35;8.90;;;2.60;;
22193;SDS011;11262;50.308;9.270;2022-09-09T13:42:02;6.17;;;2.23;;
22193;SDS011;11262;50.308;9.270;2022-09-09T13:44:29;7.30;;;2.30;;
22193;SDS011;11262;50.308;9.270;2022-09-09T13:47:05;4.20;;;2.10;;
22193;SDS011;11262;50.308;9.270;2022-09-09T13:49:45;5.97;;;2.40;;
22193;SDS011;11262;50.308;9.270;2022-09-09T13:52:12;4.57;;;2.17;;
22193;SDS011;11262;50.308;9.270;2022-09-09T13:54:40;6.00;;;2.20;;
22193;SDS011;11262;50.308;9.270;2022-09-09T13:57:16;4.53;;;2.23;;
22193;SDS011;11262;50.308;9.270;2022-09-09T13:59:50;7.93;;;2.30;;
22193;SDS011;11262;50.308;9.270;2022-09-09T14:02:17;8.00;;;2.37;;
22193;SDS011;11262;50.308;9.270;2022-09-09T14:04:43;4.20;;;2.40;;
22193;SDS011;11262;50.308;9.270;2022-09-09T14:07:10;4.90;;;2.37;;
22193;SDS011;11262;50.308;9.270;2022-09-09T14:09:37;6.27;;;2.60;;
22193;SDS011;11262;50.308;9.270;2022-09-09T14:12:04;10.27;;;2.73;;
22193;SDS011;11262;50.308;9.270;2022-09-09T14:14:30;10.23;;;2.27;;
22193;SDS011;11262;50.308;9.270;2022-09-09T14:16:55;6.77;;;2.70;;
22193;SDS011;11262;50.308;9.270;2022-09-09T14:19:21;4.23;;;2.23;;
22193;SDS011;11262;50.308;9.270;2022-09-09T14:21:47;10.37;;;2.87;;
22193;SDS011;11262;50.308;9.270;2022-09-09T14:24:13;6.77;;;2.70;;
22193;SDS011;11262;50.308;9.270;2022-09-09T14:26:39;4.37;;;2.07;;
22193;SDS011;11262;50.308;9.270;2022-09-09T14:29:05;9.07;;;2.67;;
22193;SDS011;11262;50.308;9.270;2022-09-09T14:31:31;5.90;;;2.47;;
22193;SDS011;11262;50.308;9.270;2022-09-09T14:33:58;7.43;;;2.73;;
22193;SDS011;11262;50.308;9.270;2022-09-09T14:36:24;7.03;;;2.87;;
22193;SDS011;11262;50.308;9.270;2022-09-09T14:38:50;5.47;;;2.40;;
22193;SDS011;11262;50.308;9.270;2022-09-09T14:41:16;7.47;;;2.43;;
22193;SDS011;11262;50.308;9.270;2022-09-09T14:43:43;7.10;;;2.30;;
22193;SDS011;11262;50.308;9.270;2022-09-09T14:46:11;4.37;;;2.80;;
22193;SDS011;11262;50.308;9.270;2022-09-09T14:48:38;5.80;;;2.23;;
22193;SDS011;11262;50.308;9.270;2022-09-09T14:51:06;8.87;;;2.63;;
22193;SDS011;11262;50.308;9.270;2022-09-09T14:53:40;5.83;;;2.50;;
22193;SDS011;11262;50.308;9.270;2022-09-09T14:58:36;5.37;;;2.57;;
22193;SDS011;11262;50.308;9.270;2022-09-09T15:01:09;9.57;;;2.80;;
22193;SDS011;11262;50.308;9.270;2022-09-09T15:03:37;10.03;;;2.90;;
22193;SDS011;11262;50.308;9.270;2022-09-09T15:06:08;5.20;;;2.40;;
22193;SDS011;11262;50.308;9.270;2022-09-09T15:08:36;9.50;;;2.30;;
22193;SDS011;11262;50.308;9.270;2022-09-09T15:11:03;6.37;;;2.40;;
22193;SDS011;11262;50.308;9.270;2022-09-09T15:13:32;7.53;;;2.03;;
22193;SDS011;11262;50.308;9.270;2022-09-09T15:16:05;9.30;;;2.10;;
22193;SDS011;11262;50.308;9.270;2022-09-09T15:18:32;6.90;;;2.40;;
22193;SDS011;11262;50.308;9.270;2022-09-09T15:20:58;7.57;;;2.30;;
22193;SDS011;11262;50.308;9.270;2022-09-09T15:23:30;11.10;;;2.37;;
22193;SDS011;11262;50.308;9.270;2022-09-09T15:25:57;11.53;;;2.23;;
22193;SDS011;11262;50.308;9.270;2022-09-09T15:28:23;3.07;;;2.17;;
22193;SDS011;11262;50.308;9.270;2022-09-09T15:30:49;10.03;;;2.60;;
22193;SDS011;11262;50.308;9.270;2022-09-09T15:33:17;3.73;;;2.00;;
22193;SDS011;11262;50.308;9.270;2022-09-09T15:35:43;9.10;;;2.10;;
22193;SDS011;11262;50.308;9.270;2022-09-09T15:38:08;5.33;;;2.00;;
22193;SDS011;11262;50.308;9.270;2022-09-09T15:40:34;5.50;;;2.13;;
22193;SDS011;11262;50.308;9.270;2022-09-09T15:42:59;5.80;;;2.07;;
22193;SDS011;11262;50.308;9.270;2022-09-09T15:45:25;6.17;;;2.20;;
22193;SDS011;11262;50.308;9.270;2022-09-09T15:47:52;6.07;;;2.20;;
22193;SDS011;11262;50.308;9.270;2022-09-09T15:50:17;7.27;;;2.13;;
22193;SDS011;11262;50.308;9.270;2022-09-09T15:52:43;9.73;;;2.20;;
22193;SDS011;11262;50.308;9.270;2022-09-09T15:55:09;5.07;;;2.33;;
22193;SDS011;11262;50.308;9.270;2022-09-09T15:57:35;13.90;;;2.50;;
22193;SDS011;11262;50.308;9.270;2022-09-09T16:00:01;10.33;;;2.13;;
22193;SDS011;11262;50.308;9.270;2022-09-09T16:02:29;2.73;;;1.70;;
22193;SDS011;11262;50.308;9.270;2022-09-09T16:04:55;7.20;;;2.00;;
22193;SDS011;11262;50.308;9.270;2022-09-09T16:07:22;2.83;;;1.80;;
22193;SDS011;11262;50.308;9.270;2022-09-09T16:09:48;7.70;;;1.90;;
22193;SDS011;11262;50.308;9.270;2022-09-09T16:12:15;6.70;;;2.33;;
22193;SDS011;11262;50.308;9.270;2022-09-09T16:14:41;4.13;;;1.93;;
22193;SDS011;11262;50.308;9.270;2022-09-09T16:17:06;7.23;;;2.10;;
22193;SDS011;11262;50.308;9.270;2022-09-09T16:19:32;3.80;;;2.03;;
22193;SDS011;11262;50.308;9.270;2022-09-09T16:21:59;6.47;;;2.20;;
22193;SDS011;11262;50.308;9.270;2022-09-09T16:24:25;4.80;;;2.43;;
22193;SDS011;11262;50.308;9.270;2022-09-09T16:26:51;4.30;;;2.10;;
22193;SDS011;11262;50.308;9.270;2022-09-09T16:29:19;6.30;;;2.10;;
22193;SDS011;11262;50.308;9.270;2022-09-09T16:31:47;3.90;;;2.17;;
22193;SDS011;11262;50.308;9.270;2022-09-09T16:34:14;3.00;;;2.73;;
22193;SDS011;11262;50.308;9.270;2022-09-09T16:36:42;4.77;;;2.33;;
22193;SDS011;11262;50.308;9.270;2022-09-09T16:39:12;6.20;;;2.13;;
22193;SDS011;11262;50.308;9.270;2022-09-09T16:41:40;6.18;;;2.10;;
22193;SDS011;11262;50.308;9.270;2022-09-09T16:44:08;4.73;;;2.10;;
22193;SDS011;11262;50.308;9.270;2022-09-09T16:46:36;3.20;;;1.90;;
22193;SDS011;11262;50.308;9.270;2022-09-09T16:49:04;5.80;;;2.20;;
22193;SDS011;11262;50.308;9.270;2022-09-09T16:51:36;4.23;;;1.90;;
22193;SDS011;11262;50.308;9.270;2022-09-09T16:54:05;8.37;;;2.60;;
22193;SDS011;11262;50.308;9.270;2022-09-09T16:56:33;4.17;;;2.10;;
22193;SDS011;11262;50.308;9.270;2022-09-09T16:59:03;6.03;;;2.27;;
22193;SDS011;11262;50.308;9.270;2022-09-09T17:01:32;4.17;;;2.40;;
22193;SDS011;11262;50.308;9.270;2022-09-09T17:04:02;5.10;;;2.30;;
22193;SDS011;11262;50.308;9.270;2022-09-09T17:06:30;4.13;;;2.40;;
22193;SDS011;11262;50.308;9.270;2022-09-09T17:09:00;6.67;;;2.20;;
22193;SDS011;11262;50.308;9.270;2022-09-09T17:11:26;3.37;;;2.37;;
22193;SDS011;11262;50.308;9.270;2022-09-09T17:13:53;7.53;;;2.40;;
22193;SDS011;11262;50.308;9.270;2022-09-09T17:16:20;8.60;;;2.30;;
22193;SDS011;11262;50.308;9.270;2022-09-09T17:18:50;5.93;;;2.10;;